sensor_id;sensor_type;location;lat;lon;timestamp;P1;durP1;ratioP1;P2;durP2;ratioP2
71296;SDS011;59082;50.658;4.608;2024-01-15T00:00:33;28.20;;;13.10;;
71296;SDS011;59082;50.658;4.608;2024-01-15T00:02:59;30.57;;;13.00;;
71296;SDS011;59082;50.658;4.608;2024-01-15T00:05:24;27.43;;;13.80;;
71296;SDS011;59082;50.658;4.608;2024-01-15T00:07:49;27.25;;;12.13;;
71296;SDS011;59082;50.658;4.608;2024-01-15T00:10:15;28.40;;;13.55;;
71296;SDS011;59082;50.658;4.608;2024-01-15T00:12:40;31.00;;;12.80;;
71296;SDS011;59082;50.658;4.608;2024-01-15T00:15:05;27.97;;;14.30;;
71296;SDS011;59082;50.658;4.608;2024-01-15T00:17:31;23.80;;;10.67;;
71296;SDS011;59082;50.658;4.608;2024-01-15T00:19:56;24.10;;;11.90;;
71296;SDS011;59082;50.658;4.608;2024-01-15T00:22:23;33.90;;;14.23;;
71296;SDS011;59082;50.658;4.608;2024-01-15T00:24:49;27.50;;;10.77;;
71296;SDS011;59082;50.658;4.608;2024-01-15T00:27:14;29.27;;;13.10;;
71296;SDS011;59082;50.658;4.608;2024-01-15T00:29:39;26.73;;;11.73;;
71296;SDS011;59082;50.658;4.608;2024-01-15T00:32:05;29.55;;;12.63;;
71296;SDS011;59082;50.658;4.608;2024-01-15T00:34:30;29.40;;;11.30;;
71296;SDS011;59082;50.658;4.608;2024-01-15T00:36:56;19.40;;;10.10;;
71296;SDS011;59082;50.658;4.608;2024-01-15T00:39:21;26.07;;;11.97;;
71296;SDS011;59082;50.658;4.608;2024-01-15T00:41:46;23.80;;;11.10;;
71296;SDS011;59082;50.658;4.608;2024-01-15T00:44:12;26.70;;;11.23;;
71296;SDS011;59082;50.658;4.608;2024-01-15T00:46:44;20.00;;;10.20;;
71296;SDS011;59082;50.658;4.608;2024-01-15T00:49:10;16.43;;;7.80;;
71296;SDS011;59082;50.658;4.608;2024-01-15T00:51:36;21.17;;;10.48;;
71296;SDS011;59082;50.658;4.608;2024-01-15T00:54:01;18.43;;;9.97;;
71296;SDS011;59082;50.658;4.608;2024-01-15T00:56:27;26.58;;;11.30;;
71296;SDS011;59082;50.658;4.608;2024-01-15T00:58:52;28.77;;;10.53;;
71296;SDS011;59082;50.658;4.608;2024-01-15T01:01:18;24.03;;;10.40;;
71296;SDS011;59082;50.658;4.608;2024-01-15T01:03:43;25.53;;;12.07;;
71296;SDS011;59082;50.658;4.608;2024-01-15T01:06:09;23.80;;;10.10;;
71296;SDS011;59082;50.658;4.608;2024-01-15T01:08:34;24.00;;;11.57;;
71296;SDS011;59082;50.658;4.608;2024-01-15T01:10:59;22.98;;;10.75;;
71296;SDS011;59082;50.658;4.608;2024-01-15T01:13:25;18.80;;;9.90;;
71296;SDS011;59082;50.658;4.608;2024-01-15T01:15:50;21.73;;;8.93;;
71296;SDS011;59082;50.658;4.608;2024-01-15T01:18:16;19.53;;;9.93;;
71296;SDS011;59082;50.658;4.608;2024-01-15T01:20:41;19.10;;;9.32;;
71296;SDS011;59082;50.658;4.608;2024-01-15T01:23:06;23.10;;;10.17;;
71296;SDS011;59082;50.658;4.608;2024-01-15T01:25:32;20.50;;;10.17;;
71296;SDS011;59082;50.658;4.608;2024-01-15T01:27:57;18.73;;;9.03;;
71296;SDS011;59082;50.658;4.608;2024-01-15T01:30:22;16.30;;;9.63;;
71296;SDS011;59082;50.658;4.608;2024-01-15T01:32:48;21.63;;;10.03;;
71296;SDS011;59082;50.658;4.608;2024-01-15T01:35:13;21.50;;;9.67;;
71296;SDS011;59082;50.658;4.608;2024-01-15T01:37:39;19.73;;;10.48;;
71296;SDS011;59082;50.658;4.608;2024-01-15T01:40:05;23.00;;;11.03;;
71296;SDS011;59082;50.658;4.608;2024-01-15T01:42:30;21.25;;;9.85;;
71296;SDS011;59082;50.658;4.608;2024-01-15T01:44:55;21.03;;;9.67;;
71296;SDS011;59082;50.658;4.608;2024-01-15T01:47:21;21.13;;;9.77;;
71296;SDS011;59082;50.658;4.608;2024-01-15T01:49:46;22.30;;;10.73;;
71296;SDS011;59082;50.658;4.608;2024-01-15T01:52:12;16.90;;;8.50;;
71296;SDS011;59082;50.658;4.608;2024-01-15T01:54:37;25.50;;;10.68;;
71296;SDS011;59082;50.658;4.608;2024-01-15T01:57:03;18.60;;;9.27;;
71296;SDS011;59082;50.658;4.608;2024-01-15T01:59:29;23.15;;;10.23;;
71296;SDS011;59082;50.658;4.608;2024-01-15T02:01:55;15.90;;;7.30;;
71296;SDS011;59082;50.658;4.608;2024-01-15T02:04:24;20.30;;;9.47;;
71296;SDS011;59082;50.658;4.608;2024-01-15T02:06:50;21.60;;;9.77;;
71296;SDS011;59082;50.658;4.608;2024-01-15T02:09:17;16.97;;;9.37;;
71296;SDS011;59082;50.658;4.608;2024-01-15T02:11:43;23.00;;;11.23;;
71296;SDS011;59082;50.658;4.608;2024-01-15T02:14:08;18.10;;;7.87;;
71296;SDS011;59082;50.658;4.608;2024-01-15T02:16:34;24.17;;;10.00;;
71296;SDS011;59082;50.658;4.608;2024-01-15T02:18:59;17.90;;;9.73;;
71296;SDS011;59082;50.658;4.608;2024-01-15T02:21:24;17.30;;;8.80;;
71296;SDS011;59082;50.658;4.608;2024-01-15T02:23:53;18.50;;;8.35;;
71296;SDS011;59082;50.658;4.608;2024-01-15T02:26:18;20.40;;;9.40;;
71296;SDS011;59082;50.658;4.608;2024-01-15T02:28:44;19.83;;;9.47;;
71296;SDS011;59082;50.658;4.608;2024-01-15T02:31:09;19.40;;;10.47;;
71296;SDS011;59082;50.658;4.608;2024-01-15T02:33:35;15.90;;;7.30;;
71296;SDS011;59082;50.658;4.608;2024-01-15T02:36:00;18.30;;;9.20;;
71296;SDS011;59082;50.658;4.608;2024-01-15T02:38:25;15.68;;;8.55;;
71296;SDS011;59082;50.658;4.608;2024-01-15T02:40:51;11.27;;;6.63;;
71296;SDS011;59082;50.658;4.608;2024-01-15T02:43:16;10.80;;;5.80;;
71296;SDS011;59082;50.658;4.608;2024-01-15T02:45:44;12.25;;;6.22;;
71296;SDS011;59082;50.658;4.608;2024-01-15T02:48:09;13.87;;;7.17;;
71296;SDS011;59082;50.658;4.608;2024-01-15T02:50:34;15.87;;;8.33;;
71296;SDS011;59082;50.658;4.608;2024-01-15T02:53:00;18.40;;;8.60;;
71296;SDS011;59082;50.658;4.608;2024-01-15T02:55:25;18.27;;;9.77;;
71296;SDS011;59082;50.658;4.608;2024-01-15T02:57:50;12.80;;;7.68;;
71296;SDS011;59082;50.658;4.608;2024-01-15T03:00:16;21.60;;;10.18;;
71296;SDS011;59082;50.658;4.608;2024-01-15T03:02:44;19.57;;;9.37;;
71296;SDS011;59082;50.658;4.608;2024-01-15T03:05:09;20.40;;;10.10;;
71296;SDS011;59082;50.658;4.608;2024-01-15T03:07:35;22.10;;;10.50;;
71296;SDS011;59082;50.658;4.608;2024-01-15T03:10:00;18.93;;;10.67;;
71296;SDS011;59082;50.658;4.608;2024-01-15T03:12:25;26.38;;;11.30;;
71296;SDS011;59082;50.658;4.608;2024-01-15T03:14:51;21.20;;;10.50;;
71296;SDS011;59082;50.658;4.608;2024-01-15T03:17:16;23.13;;;10.93;;
71296;SDS011;59082;50.658;4.608;2024-01-15T03:19:42;18.33;;;10.47;;
71296;SDS011;59082;50.658;4.608;2024-01-15T03:22:07;22.77;;;12.07;;
71296;SDS011;59082;50.658;4.608;2024-01-15T03:24:34;25.65;;;10.98;;
71296;SDS011;59082;50.658;4.608;2024-01-15T03:26:59;25.13;;;11.57;;
71296;SDS011;59082;50.658;4.608;2024-01-15T03:29:25;24.33;;;10.23;;
71296;SDS011;59082;50.658;4.608;2024-01-15T03:31:51;26.00;;;11.27;;
71296;SDS011;59082;50.658;4.608;2024-01-15T03:34:16;18.75;;;9.77;;
71296;SDS011;59082;50.658;4.608;2024-01-15T03:36:42;27.27;;;11.23;;
71296;SDS011;59082;50.658;4.608;2024-01-15T03:39:07;25.50;;;10.93;;
71296;SDS011;59082;50.658;4.608;2024-01-15T03:41:33;25.37;;;10.77;;
71296;SDS011;59082;50.658;4.608;2024-01-15T03:43:58;26.37;;;11.73;;
71296;SDS011;59082;50.658;4.608;2024-01-15T03:46:24;26.88;;;12.75;;
71296;SDS011;59082;50.658;4.608;2024-01-15T03:48:49;25.83;;;12.00;;
71296;SDS011;59082;50.658;4.608;2024-01-15T03:51:16;24.00;;;12.73;;
71296;SDS011;59082;50.658;4.608;2024-01-15T03:53:42;30.05;;;11.65;;
71296;SDS011;59082;50.658;4.608;2024-01-15T03:56:07;23.20;;;11.80;;
71296;SDS011;59082;50.658;4.608;2024-01-15T03:58:32;26.40;;;11.23;;
71296;SDS011;59082;50.658;4.608;2024-01-15T04:00:57;24.73;;;10.90;;
71296;SDS011;59082;50.658;4.608;2024-01-15T04:03:23;26.80;;;12.17;;
71296;SDS011;59082;50.658;4.608;2024-01-15T04:05:48;21.20;;;11.67;;
71296;SDS011;59082;50.658;4.608;2024-01-15T04:08:13;22.23;;;11.02;;
71296;SDS011;59082;50.658;4.608;2024-01-15T04:10:39;24.70;;;11.38;;
71296;SDS011;59082;50.658;4.608;2024-01-15T04:13:04;23.07;;;10.07;;
71296;SDS011;59082;50.658;4.608;2024-01-15T04:15:29;23.87;;;12.77;;
71296;SDS011;59082;50.658;4.608;2024-01-15T04:17:55;22.93;;;12.63;;
71296;SDS011;59082;50.658;4.608;2024-01-15T04:20:20;32.30;;;12.37;;
71296;SDS011;59082;50.658;4.608;2024-01-15T04:22:45;29.60;;;12.37;;
71296;SDS011;59082;50.658;4.608;2024-01-15T04:25:11;26.43;;;12.07;;
71296;SDS011;59082;50.658;4.608;2024-01-15T04:27:36;27.33;;;12.13;;
71296;SDS011;59082;50.658;4.608;2024-01-15T04:30:01;26.20;;;12.90;;
71296;SDS011;59082;50.658;4.608;2024-01-15T04:32:27;29.03;;;11.47;;
71296;SDS011;59082;50.658;4.608;2024-01-15T04:34:52;23.47;;;11.33;;
71296;SDS011;59082;50.658;4.608;2024-01-15T04:37:17;27.47;;;13.10;;
71296;SDS011;59082;50.658;4.608;2024-01-15T04:39:43;22.20;;;12.27;;
71296;SDS011;59082;50.658;4.608;2024-01-15T04:42:08;26.43;;;12.73;;
71296;SDS011;59082;50.658;4.608;2024-01-15T04:44:33;25.57;;;11.93;;
71296;SDS011;59082;50.658;4.608;2024-01-15T04:46:59;24.50;;;11.88;;
71296;SDS011;59082;50.658;4.608;2024-01-15T04:49:24;26.55;;;12.10;;
71296;SDS011;59082;50.658;4.608;2024-01-15T04:51:52;22.87;;;10.93;;
71296;SDS011;59082;50.658;4.608;2024-01-15T04:54:17;25.90;;;11.50;;
71296;SDS011;59082;50.658;4.608;2024-01-15T04:56:43;24.60;;;11.43;;
71296;SDS011;59082;50.658;4.608;2024-01-15T04:59:09;22.73;;;9.75;;
71296;SDS011;59082;50.658;4.608;2024-01-15T05:01:35;23.83;;;11.10;;
71296;SDS011;59082;50.658;4.608;2024-01-15T05:04:00;18.48;;;8.93;;
71296;SDS011;59082;50.658;4.608;2024-01-15T05:06:25;11.70;;;7.00;;
71296;SDS011;59082;50.658;4.608;2024-01-15T05:08:51;21.60;;;9.33;;
71296;SDS011;59082;50.658;4.608;2024-01-15T05:11:16;18.27;;;9.50;;
71296;SDS011;59082;50.658;4.608;2024-01-15T05:13:42;15.90;;;10.40;;
71296;SDS011;59082;50.658;4.608;2024-01-15T05:16:07;18.97;;;10.47;;
71296;SDS011;59082;50.658;4.608;2024-01-15T05:18:32;14.75;;;8.48;;
71296;SDS011;59082;50.658;4.608;2024-01-15T05:20:58;15.33;;;7.80;;
71296;SDS011;59082;50.658;4.608;2024-01-15T05:23:23;16.53;;;8.70;;
71296;SDS011;59082;50.658;4.608;2024-01-15T05:25:48;12.83;;;8.30;;
71296;SDS011;59082;50.658;4.608;2024-01-15T05:28:14;14.90;;;8.40;;
71296;SDS011;59082;50.658;4.608;2024-01-15T05:30:39;19.42;;;9.60;;
71296;SDS011;59082;50.658;4.608;2024-01-15T05:33:05;16.93;;;8.70;;
71296;SDS011;59082;50.658;4.608;2024-01-15T05:35:32;16.50;;;9.25;;
71296;SDS011;59082;50.658;4.608;2024-01-15T05:37:57;16.73;;;8.30;;
71296;SDS011;59082;50.658;4.608;2024-01-15T05:40:22;14.67;;;9.07;;
71296;SDS011;59082;50.658;4.608;2024-01-15T05:42:48;18.67;;;9.90;;
71296;SDS011;59082;50.658;4.608;2024-01-15T05:45:13;21.57;;;10.20;;
71296;SDS011;59082;50.658;4.608;2024-01-15T05:47:39;21.87;;;10.57;;
71296;SDS011;59082;50.658;4.608;2024-01-15T05:50:04;22.30;;;10.33;;
71296;SDS011;59082;50.658;4.608;2024-01-15T05:52:30;17.65;;;10.63;;
71296;SDS011;59082;50.658;4.608;2024-01-15T05:54:55;19.27;;;10.97;;
71296;SDS011;59082;50.658;4.608;2024-01-15T05:57:20;18.93;;;10.53;;
71296;SDS011;59082;50.658;4.608;2024-01-15T05:59:46;25.83;;;12.97;;
71296;SDS011;59082;50.658;4.608;2024-01-15T06:02:11;20.90;;;10.93;;
71296;SDS011;59082;50.658;4.608;2024-01-15T06:04:36;18.10;;;10.52;;
71296;SDS011;59082;50.658;4.608;2024-01-15T06:07:02;20.77;;;11.27;;
71296;SDS011;59082;50.658;4.608;2024-01-15T06:09:27;21.90;;;12.23;;
71296;SDS011;59082;50.658;4.608;2024-01-15T06:11:53;20.33;;;11.25;;
71296;SDS011;59082;50.658;4.608;2024-01-15T06:14:20;21.47;;;11.23;;
71296;SDS011;59082;50.658;4.608;2024-01-15T06:16:47;21.52;;;12.07;;
71296;SDS011;59082;50.658;4.608;2024-01-15T06:19:13;20.83;;;10.33;;
71296;SDS011;59082;50.658;4.608;2024-01-15T06:21:40;21.90;;;10.35;;
71296;SDS011;59082;50.658;4.608;2024-01-15T06:24:05;19.67;;;10.65;;
71296;SDS011;59082;50.658;4.608;2024-01-15T06:26:31;18.83;;;11.03;;
71296;SDS011;59082;50.658;4.608;2024-01-15T06:28:56;16.90;;;9.85;;
71296;SDS011;59082;50.658;4.608;2024-01-15T06:31:22;16.45;;;8.32;;
71296;SDS011;59082;50.658;4.608;2024-01-15T06:33:47;15.67;;;10.07;;
71296;SDS011;59082;50.658;4.608;2024-01-15T06:36:14;20.20;;;11.15;;
71296;SDS011;59082;50.658;4.608;2024-01-15T06:38:41;16.83;;;9.32;;
71296;SDS011;59082;50.658;4.608;2024-01-15T06:41:06;16.87;;;9.23;;
71296;SDS011;59082;50.658;4.608;2024-01-15T06:43:32;16.07;;;9.30;;
71296;SDS011;59082;50.658;4.608;2024-01-15T06:45:57;17.93;;;9.90;;
71296;SDS011;59082;50.658;4.608;2024-01-15T06:48:22;17.90;;;10.57;;
71296;SDS011;59082;50.658;4.608;2024-01-15T06:50:48;17.53;;;10.33;;
71296;SDS011;59082;50.658;4.608;2024-01-15T06:53:13;21.35;;;9.82;;
71296;SDS011;59082;50.658;4.608;2024-01-15T06:55:39;16.00;;;9.00;;
71296;SDS011;59082;50.658;4.608;2024-01-15T06:58:04;15.40;;;9.73;;
71296;SDS011;59082;50.658;4.608;2024-01-15T07:00:29;15.03;;;8.60;;
71296;SDS011;59082;50.658;4.608;2024-01-15T07:02:55;21.20;;;10.97;;
71296;SDS011;59082;50.658;4.608;2024-01-15T07:05:21;15.55;;;8.60;;
71296;SDS011;59082;50.658;4.608;2024-01-15T07:07:46;17.90;;;10.65;;
71296;SDS011;59082;50.658;4.608;2024-01-15T07:10:12;13.60;;;8.57;;
71296;SDS011;59082;50.658;4.608;2024-01-15T07:12:38;17.93;;;10.50;;
71296;SDS011;59082;50.658;4.608;2024-01-15T07:15:03;17.65;;;9.90;;
71296;SDS011;59082;50.658;4.608;2024-01-15T07:17:31;16.97;;;9.00;;
71296;SDS011;59082;50.658;4.608;2024-01-15T07:19:56;18.65;;;9.88;;
71296;SDS011;59082;50.658;4.608;2024-01-15T07:22:22;17.70;;;10.77;;
71296;SDS011;59082;50.658;4.608;2024-01-15T07:24:47;18.27;;;9.97;;
71296;SDS011;59082;50.658;4.608;2024-01-15T07:27:12;19.73;;;9.20;;
71296;SDS011;59082;50.658;4.608;2024-01-15T07:29:38;22.30;;;10.67;;
71296;SDS011;59082;50.658;4.608;2024-01-15T07:32:04;18.03;;;9.47;;
71296;SDS011;59082;50.658;4.608;2024-01-15T07:34:29;19.55;;;10.73;;
71296;SDS011;59082;50.658;4.608;2024-01-15T07:36:55;13.77;;;8.83;;
71296;SDS011;59082;50.658;4.608;2024-01-15T07:39:20;16.50;;;8.57;;
71296;SDS011;59082;50.658;4.608;2024-01-15T07:41:48;11.07;;;7.30;;
71296;SDS011;59082;50.658;4.608;2024-01-15T07:44:13;18.35;;;9.50;;
71296;SDS011;59082;50.658;4.608;2024-01-15T07:46:40;12.40;;;7.87;;
71296;SDS011;59082;50.658;4.608;2024-01-15T07:49:06;16.20;;;9.00;;
71296;SDS011;59082;50.658;4.608;2024-01-15T07:51:31;17.87;;;9.77;;
71296;SDS011;59082;50.658;4.608;2024-01-15T07:53:56;15.27;;;8.60;;
71296;SDS011;59082;50.658;4.608;2024-01-15T07:56:22;12.82;;;8.30;;
71296;SDS011;59082;50.658;4.608;2024-01-15T07:58:47;17.37;;;7.93;;
71296;SDS011;59082;50.658;4.608;2024-01-15T08:01:12;16.03;;;8.10;;
71296;SDS011;59082;50.658;4.608;2024-01-15T08:03:38;15.37;;;8.37;;
71296;SDS011;59082;50.658;4.608;2024-01-15T08:06:04;10.23;;;7.23;;
71296;SDS011;59082;50.658;4.608;2024-01-15T08:08:30;14.02;;;7.50;;
71296;SDS011;59082;50.658;4.608;2024-01-15T08:10:55;12.93;;;6.93;;
71296;SDS011;59082;50.658;4.608;2024-01-15T08:13:21;10.83;;;6.27;;
71296;SDS011;59082;50.658;4.608;2024-01-15T08:15:46;10.53;;;6.23;;
71296;SDS011;59082;50.658;4.608;2024-01-15T08:18:12;12.20;;;6.38;;
71296;SDS011;59082;50.658;4.608;2024-01-15T08:20:37;11.93;;;6.13;;
71296;SDS011;59082;50.658;4.608;2024-01-15T08:23:03;10.03;;;5.63;;
71296;SDS011;59082;50.658;4.608;2024-01-15T08:25:28;11.53;;;5.47;;
71296;SDS011;59082;50.658;4.608;2024-01-15T08:27:53;9.95;;;5.57;;
71296;SDS011;59082;50.658;4.608;2024-01-15T08:30:19;14.07;;;4.53;;
71296;SDS011;59082;50.658;4.608;2024-01-15T08:32:45;9.05;;;4.22;;
71296;SDS011;59082;50.658;4.608;2024-01-15T08:35:11;9.20;;;3.70;;
71296;SDS011;59082;50.658;4.608;2024-01-15T08:37:36;4.57;;;3.87;;
71296;SDS011;59082;50.658;4.608;2024-01-15T08:40:02;8.73;;;3.55;;
71296;SDS011;59082;50.658;4.608;2024-01-15T08:42:29;6.65;;;3.80;;
71296;SDS011;59082;50.658;4.608;2024-01-15T08:44:55;4.75;;;2.92;;
71296;SDS011;59082;50.658;4.608;2024-01-15T08:47:22;7.95;;;4.03;;
71296;SDS011;59082;50.658;4.608;2024-01-15T08:49:50;7.97;;;3.63;;
71296;SDS011;59082;50.658;4.608;2024-01-15T08:52:17;4.05;;;3.25;;
71296;SDS011;59082;50.658;4.608;2024-01-15T08:54:42;4.10;;;3.23;;
71296;SDS011;59082;50.658;4.608;2024-01-15T08:57:08;4.43;;;2.87;;
71296;SDS011;59082;50.658;4.608;2024-01-15T08:59:33;7.03;;;2.57;;
71296;SDS011;59082;50.658;4.608;2024-01-15T09:01:58;4.70;;;2.65;;
71296;SDS011;59082;50.658;4.608;2024-01-15T09:04:24;3.45;;;2.72;;
71296;SDS011;59082;50.658;4.608;2024-01-15T09:06:50;3.70;;;2.57;;
71296;SDS011;59082;50.658;4.608;2024-01-15T09:09:15;5.95;;;2.90;;
71296;SDS011;59082;50.658;4.608;2024-01-15T09:11:41;5.83;;;3.07;;
71296;SDS011;59082;50.658;4.608;2024-01-15T09:14:06;6.57;;;2.80;;
71296;SDS011;59082;50.658;4.608;2024-01-15T09:16:31;3.43;;;3.13;;
71296;SDS011;59082;50.658;4.608;2024-01-15T09:18:57;7.47;;;5.47;;
71296;SDS011;59082;50.658;4.608;2024-01-15T09:21:22;4.25;;;2.72;;
71296;SDS011;59082;50.658;4.608;2024-01-15T09:23:49;6.73;;;4.27;;
71296;SDS011;59082;50.658;4.608;2024-01-15T09:26:14;8.45;;;2.70;;
71296;SDS011;59082;50.658;4.608;2024-01-15T09:28:40;6.37;;;2.60;;
71296;SDS011;59082;50.658;4.608;2024-01-15T09:31:05;5.13;;;2.90;;
71296;SDS011;59082;50.658;4.608;2024-01-15T09:33:31;3.30;;;3.07;;
71296;SDS011;59082;50.658;4.608;2024-01-15T09:35:56;3.87;;;2.23;;
71296;SDS011;59082;50.658;4.608;2024-01-15T09:38:21;6.53;;;2.20;;
71296;SDS011;59082;50.658;4.608;2024-01-15T09:40:49;3.72;;;2.15;;
71296;SDS011;59082;50.658;4.608;2024-01-15T09:43:14;9.98;;;2.03;;
71296;SDS011;59082;50.658;4.608;2024-01-15T09:45:41;2.70;;;2.50;;
71296;SDS011;59082;50.658;4.608;2024-01-15T09:48:06;8.02;;;3.25;;
71296;SDS011;59082;50.658;4.608;2024-01-15T09:50:32;6.50;;;2.43;;
71296;SDS011;59082;50.658;4.608;2024-01-15T09:52:57;12.33;;;9.13;;
71296;SDS011;59082;50.658;4.608;2024-01-15T09:55:23;7.85;;;6.97;;
71296;SDS011;59082;50.658;4.608;2024-01-15T09:57:48;4.57;;;3.67;;
71296;SDS011;59082;50.658;4.608;2024-01-15T10:00:14;5.03;;;2.80;;
71296;SDS011;59082;50.658;4.608;2024-01-15T10:02:43;3.22;;;2.47;;
71296;SDS011;59082;50.658;4.608;2024-01-15T10:05:09;3.23;;;2.93;;
71296;SDS011;59082;50.658;4.608;2024-01-15T10:07:35;6.20;;;2.40;;
71296;SDS011;59082;50.658;4.608;2024-01-15T10:10:01;7.50;;;2.58;;
71296;SDS011;59082;50.658;4.608;2024-01-15T10:12:26;4.17;;;3.23;;
71296;SDS011;59082;50.658;4.608;2024-01-15T10:14:52;5.17;;;2.83;;
71296;SDS011;59082;50.658;4.608;2024-01-15T10:17:17;4.47;;;2.58;;
71296;SDS011;59082;50.658;4.608;2024-01-15T10:19:43;5.30;;;2.63;;
71296;SDS011;59082;50.658;4.608;2024-01-15T10:22:08;4.80;;;3.03;;
71296;SDS011;59082;50.658;4.608;2024-01-15T10:24:37;4.68;;;2.10;;
71296;SDS011;59082;50.658;4.608;2024-01-15T10:27:05;5.18;;;2.30;;
71296;SDS011;59082;50.658;4.608;2024-01-15T10:29:32;6.17;;;2.23;;
71296;SDS011;59082;50.658;4.608;2024-01-15T10:31:57;3.50;;;1.98;;
71296;SDS011;59082;50.658;4.608;2024-01-15T10:34:23;5.33;;;1.83;;
71296;SDS011;59082;50.658;4.608;2024-01-15T10:36:49;5.03;;;2.00;;
71296;SDS011;59082;50.658;4.608;2024-01-15T10:39:20;3.22;;;1.92;;
71296;SDS011;59082;50.658;4.608;2024-01-15T10:41:45;2.77;;;1.50;;
71296;SDS011;59082;50.658;4.608;2024-01-15T10:44:11;1.42;;;1.13;;
71296;SDS011;59082;50.658;4.608;2024-01-15T10:46:36;1.47;;;1.10;;
71296;SDS011;59082;50.658;4.608;2024-01-15T10:49:02;2.67;;;1.17;;
71296;SDS011;59082;50.658;4.608;2024-01-15T10:51:27;5.07;;;2.00;;
71296;SDS011;59082;50.658;4.608;2024-01-15T10:53:53;2.30;;;1.30;;
71296;SDS011;59082;50.658;4.608;2024-01-15T10:56:20;5.60;;;1.58;;
71296;SDS011;59082;50.658;4.608;2024-01-15T10:58:46;3.25;;;1.38;;
71296;SDS011;59082;50.658;4.608;2024-01-15T11:01:12;1.97;;;1.70;;
71296;SDS011;59082;50.658;4.608;2024-01-15T11:03:38;5.22;;;1.85;;
71296;SDS011;59082;50.658;4.608;2024-01-15T11:06:03;4.30;;;1.70;;
71296;SDS011;59082;50.658;4.608;2024-01-15T11:08:40;2.08;;;1.90;;
71296;SDS011;59082;50.658;4.608;2024-01-15T11:11:08;2.65;;;1.88;;
71296;SDS011;59082;50.658;4.608;2024-01-15T11:16:04;0.90;;;0.63;;
71296;SDS011;59082;50.658;4.608;2024-01-15T11:18:31;1.60;;;1.40;;
71296;SDS011;59082;50.658;4.608;2024-01-15T11:23:44;6.60;;;1.40;;
71296;SDS011;59082;50.658;4.608;2024-01-15T11:28:56;1.13;;;1.10;;
71296;SDS011;59082;50.658;4.608;2024-01-15T11:34:06;4.90;;;2.03;;
71296;SDS011;59082;50.658;4.608;2024-01-15T11:40:00;8.95;;;1.70;;
71296;SDS011;59082;50.658;4.608;2024-01-15T11:42:04;2.90;;;1.70;;
71296;SDS011;59082;50.658;4.608;2024-01-15T11:44:30;2.28;;;1.77;;
71296;SDS011;59082;50.658;4.608;2024-01-15T11:52:01;2.17;;;1.37;;
71296;SDS011;59082;50.658;4.608;2024-01-15T11:54:28;3.75;;;1.95;;
71296;SDS011;59082;50.658;4.608;2024-01-15T11:56:56;2.35;;;1.70;;
71296;SDS011;59082;50.658;4.608;2024-01-15T11:59:22;1.65;;;1.17;;
71296;SDS011;59082;50.658;4.608;2024-01-15T12:01:48;2.10;;;1.43;;
71296;SDS011;59082;50.658;4.608;2024-01-15T12:04:14;1.75;;;1.40;;
71296;SDS011;59082;50.658;4.608;2024-01-15T12:06:40;4.10;;;1.48;;
71296;SDS011;59082;50.658;4.608;2024-01-15T12:09:06;3.00;;;1.37;;
71296;SDS011;59082;50.658;4.608;2024-01-15T12:11:32;4.00;;;1.10;;
71296;SDS011;59082;50.658;4.608;2024-01-15T12:13:59;2.33;;;1.10;;
71296;SDS011;59082;50.658;4.608;2024-01-15T12:16:25;0.77;;;0.77;;
71296;SDS011;59082;50.658;4.608;2024-01-15T12:18:50;4.37;;;1.60;;
71296;SDS011;59082;50.658;4.608;2024-01-15T12:21:16;1.37;;;1.27;;
71296;SDS011;59082;50.658;4.608;2024-01-15T12:23:41;5.85;;;1.13;;
71296;SDS011;59082;50.658;4.608;2024-01-15T12:26:07;1.43;;;1.30;;
71296;SDS011;59082;50.658;4.608;2024-01-15T12:28:32;3.60;;;1.40;;
71296;SDS011;59082;50.658;4.608;2024-01-15T12:30:58;2.80;;;1.23;;
71296;SDS011;59082;50.658;4.608;2024-01-15T12:33:25;0.85;;;0.85;;
71296;SDS011;59082;50.658;4.608;2024-01-15T12:35:52;2.23;;;1.57;;
71296;SDS011;59082;50.658;4.608;2024-01-15T12:38:18;4.72;;;1.55;;
71296;SDS011;59082;50.658;4.608;2024-01-15T12:40:44;1.02;;;1.02;;
71296;SDS011;59082;50.658;4.608;2024-01-15T12:43:11;2.90;;;1.80;;
71296;SDS011;59082;50.658;4.608;2024-01-15T12:45:36;2.33;;;1.93;;
71296;SDS011;59082;50.658;4.608;2024-01-15T12:48:05;1.55;;;1.55;;
71296;SDS011;59082;50.658;4.608;2024-01-15T12:50:31;2.97;;;1.20;;
71296;SDS011;59082;50.658;4.608;2024-01-15T12:52:58;2.00;;;0.90;;
71296;SDS011;59082;50.658;4.608;2024-01-15T12:55:24;1.27;;;0.95;;
71296;SDS011;59082;50.658;4.608;2024-01-15T12:57:50;5.43;;;1.87;;
71296;SDS011;59082;50.658;4.608;2024-01-15T13:00:19;5.80;;;1.88;;
71296;SDS011;59082;50.658;4.608;2024-01-15T13:02:44;0.97;;;0.87;;
71296;SDS011;59082;50.658;4.608;2024-01-15T13:05:10;2.30;;;1.38;;
71296;SDS011;59082;50.658;4.608;2024-01-15T13:07:38;3.53;;;1.63;;
71296;SDS011;59082;50.658;4.608;2024-01-15T13:10:04;8.90;;;1.40;;
71296;SDS011;59082;50.658;4.608;2024-01-15T13:12:29;1.30;;;1.20;;
71296;SDS011;59082;50.658;4.608;2024-01-15T13:14:54;2.10;;;0.90;;
71296;SDS011;59082;50.658;4.608;2024-01-15T13:17:21;1.67;;;1.27;;
71296;SDS011;59082;50.658;4.608;2024-01-15T13:19:47;8.60;;;1.73;;
71296;SDS011;59082;50.658;4.608;2024-01-15T13:22:12;3.30;;;1.40;;
71296;SDS011;59082;50.658;4.608;2024-01-15T13:24:39;4.25;;;0.68;;
71296;SDS011;59082;50.658;4.608;2024-01-15T13:27:04;4.33;;;1.20;;
71296;SDS011;59082;50.658;4.608;2024-01-15T13:29:30;5.20;;;2.17;;
71296;SDS011;59082;50.658;4.608;2024-01-15T13:31:56;2.87;;;1.57;;
71296;SDS011;59082;50.658;4.608;2024-01-15T13:34:22;0.95;;;0.82;;
71296;SDS011;59082;50.658;4.608;2024-01-15T13:36:47;1.87;;;1.10;;
71296;SDS011;59082;50.658;4.608;2024-01-15T13:39:12;6.00;;;1.47;;
71296;SDS011;59082;50.658;4.608;2024-01-15T13:41:38;3.43;;;1.10;;
71296;SDS011;59082;50.658;4.608;2024-01-15T13:44:03;5.13;;;1.30;;
71296;SDS011;59082;50.658;4.608;2024-01-15T13:46:29;3.50;;;1.17;;
71296;SDS011;59082;50.658;4.608;2024-01-15T13:48:58;1.83;;;1.45;;
71296;SDS011;59082;50.658;4.608;2024-01-15T13:51:24;3.80;;;1.13;;
71296;SDS011;59082;50.658;4.608;2024-01-15T13:53:49;2.65;;;1.23;;
71296;SDS011;59082;50.658;4.608;2024-01-15T13:56:15;3.20;;;0.83;;
71296;SDS011;59082;50.658;4.608;2024-01-15T13:58:41;4.00;;;1.27;;
71296;SDS011;59082;50.658;4.608;2024-01-15T14:01:06;2.40;;;1.10;;
71296;SDS011;59082;50.658;4.608;2024-01-15T14:03:32;2.53;;;1.43;;
71296;SDS011;59082;50.658;4.608;2024-01-15T14:05:57;2.33;;;1.60;;
71296;SDS011;59082;50.658;4.608;2024-01-15T14:08:23;4.10;;;1.00;;
71296;SDS011;59082;50.658;4.608;2024-01-15T14:10:48;1.10;;;1.00;;
71296;SDS011;59082;50.658;4.608;2024-01-15T14:13:14;3.57;;;1.00;;
71296;SDS011;59082;50.658;4.608;2024-01-15T14:15:39;3.93;;;1.00;;
71296;SDS011;59082;50.658;4.608;2024-01-15T14:18:05;1.57;;;1.20;;
71296;SDS011;59082;50.658;4.608;2024-01-15T14:20:30;4.55;;;1.52;;
71296;SDS011;59082;50.658;4.608;2024-01-15T14:22:56;4.40;;;1.57;;
71296;SDS011;59082;50.658;4.608;2024-01-15T14:25:21;6.90;;;3.67;;
71296;SDS011;59082;50.658;4.608;2024-01-15T14:27:47;2.50;;;1.57;;
71296;SDS011;59082;50.658;4.608;2024-01-15T14:30:12;2.90;;;1.33;;
71296;SDS011;59082;50.658;4.608;2024-01-15T14:32:38;4.17;;;1.23;;
71296;SDS011;59082;50.658;4.608;2024-01-15T14:35:04;3.10;;;0.60;;
71296;SDS011;59082;50.658;4.608;2024-01-15T14:37:30;8.48;;;1.77;;
71296;SDS011;59082;50.658;4.608;2024-01-15T14:39:56;3.37;;;1.50;;
71296;SDS011;59082;50.658;4.608;2024-01-15T14:42:21;0.98;;;0.82;;
71296;SDS011;59082;50.658;4.608;2024-01-15T14:44:47;1.27;;;1.03;;